Airfield :
LOGIN :

Register | Disclaimer

   EN    FR    IT 

 










Legend :    VFR   Marginal VFR   IFR   Intensive IFR   Very Intensive IFR
Visi :
Ceiling :
>= 8 km
>= 3000ft
5 to 8 km
1000 to 3000 ft
1500m to 5 km
500 to 1000 ft
800 to 1500m
200 to 500 ft
< 800m
< 200 ft
Symbols :   Thunderstorms  Fog  Heavy snow  Heavy precipitations  Wind > 20 kt
SIGMETs :     Misc.  Thunderstorms  Icing  Turbulence  Mountain Waves  Volcanic Ashes







- Airport Elevation : 408 ft
- IATA code : FKB


EDSB - Karlsruhe Baden Baden

CURRENT METAR :
  • 240820Z 26007KT 220V300 CAVOK 22/13 Q1019

EXPIRED METARs :
  • 240750Z 26009KT 220V310 CAVOK 21/13 Q1019
  • 240720Z 24005KT 180V300 CAVOK 21/14 Q1019
  • 240650Z 24004KT 200V310 CAVOK 20/13 Q1019
  • 240620Z 24005KT 190V300 CAVOK 20/14 Q1019
  • 240550Z 23005KT 190V290 CAVOK 19/13 Q1019
  • 240520Z VRB03KT CAVOK 19/13 Q1019

TAF TAF EDSB
Valid from the 24 at 06:00 until the 25 at 06:00 UTC


240500Z 2406/2506 25003KT 9999 SCT040
BECMG 2406/2409 25009KT
BECMG 2417/2420 VRB03KT
No reported NOTAMs for that airfield.



MET'MAP, your aeronautical weather chart ! - Copyright ORBIFLY December 2007 - Disclaimer

ORBIFLY MET'MAP TEAM :

Programming & Development : Alexandra Zaïnal
Concept & Development : Baudouin d'Aumeries
Co-Development & Prog : Marc-Olivier Méhu
Technical & hardware support : Manuel Goepfert

Contact : metmap@orbifly.com




SOURCES & CREDITS :

   NOAA